Redmond, Oregon
Current Conditions -  °F | °C
As of 11:56 PM on Thursday 27 Nov 2014 (Local Time) from KRDM Reporting Station
Overcast Overcast  
Wind Chill: 10°   Ceiling: 9000
Heat Index: 10°   Visibility: 10mi
Dew Point:   Wind: 20mph
Humidity: 63%   Direction: 200°SSW
Pressure: 29.87"   Gusts: 31mph
Location:  44.27°N, 121.17°W
Report Text: KRDM 280756Z AUTO 20017G27KT 10SM BKN090 OVC110 10/03 A2987 RMK AO2 PK WND 22029/0746 SLP109 T01000033 401280089
Loading
Personal Weather Stations






























Interactive Weather Map New forecast layout! Learn more

10-Day Weather Forecast

Advertisements
Track Severe Weather on mobile